Flight Track Log - Related Links

Times and Time Zones

All times are in EDT time to prevent confusion due to time zone crossing. See the GPD95 flight status page for this flight to view local times or setup timezone preferences in your user account.

Time Position Orientation Groundspeed Altitude Reporting Facility
EDT Latitude Longitude Course Direction KTS MPH feet Rate Location/Type
Mon 09:56:51 AM 41.3192 -70.9419 254° West 133 153 4,200  Level Boston Center
Mon 09:57:52 AM 41.3114 -70.9892 258° West 133 153 4,600 443 Climbing Boston Center
Mon 09:58:53 AM 41.3058 -71.0364 261° West 131 151 5,100 492 Climbing Boston Center
Mon 09:59:54 AM 41.2981 -71.0864 258° West 135 155 5,600 470 Climbing Boston Center
Mon 10:00:48 AM 41.2925 -71.1306 261° West 131 151 6,000 440 Climbing Boston Center
Mon 10:01:43 AM 41.2889 -71.1747 264° West 132 152 6,400 224 Climbing Boston Center
Mon 10:02:00 AM 41.5937 -70.8311 254° West  Level Estimated
Mon 10:03:02 AM 41.2811 -71.2414 261° West 140 161 6,500  Level Boston Center
Mon 10:03:56 AM 41.2753 -71.2883 261° West 142 163 6,500  Level Boston Center
Mon 10:04:57 AM 41.2633 -71.3411 253° West 142 163 6,500  Level Boston Center
Mon 10:05:58 AM 41.2597 -71.3908 264° West 138 159 6,500  Level Boston Center
Mon 10:07:11 AM 41.2519 -71.4517 260° West 139 160 6,500  Level Boston Center
Mon 10:07:53 AM 41.2481 -71.4903 262° West 139 160 6,500  Level Boston Center
Mon 10:09:00 AM 41.2403 -71.5456 259° West 139 160 6,500  Level Boston Center
Mon 10:10:01 AM 41.2322 -71.5928 257° West 135 155 6,500  Level Boston Center
Mon 10:11:02 AM 41.2242 -71.6481 259° West 138 159 6,500  Level Boston Center
Mon 10:12:03 AM 41.2183 -71.7006 262° West 141 162 6,500  Level Boston Center
Mon 10:13:03 AM 41.2125 -71.7503 261° West 137 158 6,500  Level Boston Center
Mon 10:14:04 AM 41.2044 -71.8000 258° West 131 151 6,500  Level Boston Center
Mon 10:15:05 AM 41.1983 -71.8525 261° West 140 161 6,500  Level Boston Center
Mon 10:16:18 AM 41.1906 -71.9161 261° West 139 160 6,500 30 Level Boston Center
Mon 10:18:24 AM 41.1667 -72.0167 253° West 145 167 6,600 32 Climbing New York TRACON
Mon 10:19:24 AM 41.1667 -72.0667 270° West 143 165 6,600  Level New York TRACON
Mon 10:20:24 AM 41.1667 -72.1167 270° West 143 165 6,600  Level New York TRACON
Mon 10:21:24 AM 41.1500 -72.1833 252° West 145 167 6,600  Level New York TRACON
Mon 10:22:24 AM 41.1500 -72.2333 270° West 145 167 6,600  Level New York TRACON
Mon 10:23:24 AM 41.1333 -72.2833 246° West 144 166 6,600  Level New York TRACON
Mon 10:24:24 AM 41.1333 -72.3333 270° West 148 170 6,600  Level New York TRACON
Mon 10:25:24 AM 41.1167 -72.3833 246° West 146 168 6,600  Level New York TRACON
Mon 10:26:24 AM 41.1167 -72.4333 270° West 146 168 6,600  Level New York TRACON
Mon 10:27:24 AM 41.1167 -72.4833 270° West 146 168 6,600  Level New York TRACON
Mon 10:28:24 AM 41.1000 -72.5500 252° West 145 167 6,600  Level New York TRACON
Mon 10:29:24 AM 41.1000 -72.6000 270° West 145 167 6,600  Level New York TRACON
Mon 10:30:24 AM 41.0833 -72.6500 246° West 147 169 6,600  Level New York TRACON
Mon 10:31:24 AM 41.0833 -72.7000 270° West 148 170 6,600  Level New York TRACON
Mon 10:32:24 AM 41.0667 -72.7500 246° West 148 170 6,600  Level New York TRACON
Mon 10:33:24 AM 41.0667 -72.8000 270° West 150 173 6,600 -50 Level New York TRACON
Mon 10:34:24 AM 41.0500 -72.8667 252° West 150 173 6,500 -200 Descending New York TRACON
Mon 10:35:24 AM 41.0500 -72.9167 270° West 158 182 6,200 -250 Descending New York TRACON
Mon 10:36:24 AM 41.0333 -72.9667 246° West 157 181 6,000 -250 Descending New York TRACON
Mon 10:37:24 AM 41.0333 -73.0333 270° West 160 184 5,700 -250 Descending New York TRACON
Mon 10:38:24 AM 41.0167 -73.0833 246° West 161 185 5,500 -300 Descending New York TRACON
Mon 10:39:24 AM 41.0167 -73.1500 270° West 163 188 5,100 -350 Descending New York TRACON
Mon 10:40:24 AM 41.0000 -73.2000 246° West 166 191 4,800 -350 Descending New York TRACON
Mon 10:41:24 AM 41.0000 -73.2667 270° West 168 193 4,400 -450 Descending New York TRACON
Mon 10:42:24 AM 40.9833 -73.3333 252° West 168 193 3,900 -500 Descending New York TRACON
Mon 10:43:24 AM 40.9833 -73.3833 270° West 167 192 3,400 -500 Descending New York TRACON
Mon 10:44:24 AM 40.9667 -73.4500 252° West 167 192 2,900 -400 Descending New York TRACON
Mon 10:45:24 AM 40.9667 -73.5167 270° West 169 194 2,600 -200 Descending New York TRACON
Mon 10:46:24 AM 40.9667 -73.5667 270° West 154 177 2,500 -53 Descending New York TRACON
Mon 10:47:18 AM 40.9667 -73.6167 270° West 152 175 2,500 -53 Level New York TRACON
Mon 10:48:18 AM 40.9667 -73.6667 270° West 154 177 2,400 -250 Descending New York TRACON
Mon 10:49:18 AM 40.9667 -73.7333 270° West 158 182 2,000 -350 Descending New York TRACON
Mon 10:50:18 AM 40.9667 -73.7833 270° West 156 180 1,700 -286 Descending New York TRACON
Mon 10:51:24 AM 40.9500 -73.8500 252° West 153 176 1,400 -150 Descending New York TRACON
Mon 10:52:18 AM 40.9333 -73.8833 237° Southwest 143 165 1,400  Level New York TRACON
Mon 10:53:18 AM 40.9167 -73.9167 237° Southwest 146 168 1,400 -50 Level New York TRACON
Mon 10:54:18 AM 40.9000 -73.9667 246° West 139 160 1,300 -250 Descending New York TRACON
Mon 10:55:18 AM 40.8833 -74.0167 246° West 149 171 900 -400 Descending New York TRACON

Login

Don't have an account? Register now (free) for customized features, flight alerts, and more!